Time;durP1;ratioP1;P1;durP2;ratioP2;P2;SDS_P1;SDS_P2;PMS_P1;PMS_P2;Temp;Humidity;BMP_temperature;BMP_pressure;BME280_temperature;BME280_humidity;BME280_pressure;Samples;Min_cycle;Max_cycle;Signal;HPM_P1;HPM_P2
2022/11/13 00:01:14;;;;;;;91.22;48.78;;;7.40;99.90;;;;;;6247978;23;20007;-82
2022/11/13 00:03:40;;;;;;;94.80;47.00;;;7.40;99.90;;;;;;6248582;23;20014;-81
2022/11/13 00:06:08;;;;;;;87.93;46.13;;;7.50;99.90;;;;;;6247746;23;20419;-82
2022/11/13 00:08:34;;;;;;;81.75;41.72;;;7.50;99.90;;;;;;6248440;23;20471;-81
2022/11/13 00:11:12;;;;;;;73.15;39.80;;;7.50;99.90;;;;;;6248093;23;19993;-82
2022/11/13 00:13:38;;;;;;;78.50;40.67;;;7.50;99.90;;;;;;6247882;23;20000;-81
2022/11/13 00:16:06;;;;;;;77.88;39.53;;;7.50;99.90;;;;;;6247856;23;19996;-82
2022/11/13 00:18:34;;;;;;;78.85;41.70;;;7.50;99.90;;;;;;6247587;23;20078;-83
2022/11/13 00:21:16;;;;;;;91.53;46.75;;;7.50;99.90;;;;;;6247656;23;19996;-82
2022/11/13 00:23:42;;;;;;;96.57;52.47;;;7.50;99.90;;;;;;6248357;23;20038;-82
2022/11/13 00:26:15;;;;;;;138.25;68.32;;;7.60;99.90;;;;;;6246499;23;20413;-82
2022/11/13 00:28:42;;;;;;;110.03;58.03;;;7.50;99.90;;;;;;6246213;23;20039;-83
2022/11/13 00:31:09;;;;;;;110.47;56.85;;;7.40;99.90;;;;;;6246671;23;20003;-82
2022/11/13 00:33:35;;;;;;;128.32;66.80;;;7.40;99.90;;;;;;6247562;23;20015;-82
2022/11/13 00:36:05;;;;;;;143.18;65.32;;;7.30;99.90;;;;;;6247023;23;19988;-82
2022/11/13 00:38:31;;;;;;;132.57;68.88;;;7.30;99.90;;;;;;6220587;23;20146;-81
2022/11/13 00:40:58;;;;;;;119.50;63.50;;;7.20;99.90;;;;;;6246224;23;20432;-82
2022/11/13 00:43:24;;;;;;;117.97;57.25;;;7.10;99.90;;;;;;6247063;23;19996;-82
2022/11/13 00:45:50;;;;;;;124.57;59.50;;;7.10;99.90;;;;;;6245378;23;20039;-82
2022/11/13 00:48:16;;;;;;;134.98;70.63;;;7.10;99.90;;;;;;6246302;23;20004;-81
2022/11/13 00:50:43;;;;;;;118.88;62.65;;;7.10;99.90;;;;;;6245871;23;20004;-82
2022/11/13 00:53:09;;;;;;;133.18;69.53;;;7.00;99.90;;;;;;6246596;23;20018;-81
2022/11/13 00:55:34;;;;;;;130.73;63.60;;;7.00;99.90;;;;;;6245212;23;20081;-82
2022/11/13 00:58:00;;;;;;;140.30;69.50;;;7.00;99.90;;;;;;6246695;23;19992;-83
2022/11/13 01:00:26;;;;;;;133.60;69.57;;;6.90;99.90;;;;;;6247445;23;20431;-82
2022/11/13 01:02:52;;;;;;;149.95;69.43;;;6.90;99.90;;;;;;6220125;23;20313;-83
2022/11/13 01:05:18;;;;;;;145.57;69.10;;;6.90;99.90;;;;;;6246173;23;20419;-82
2022/11/13 01:07:43;;;;;;;132.57;67.28;;;6.80;99.90;;;;;;6247351;23;20274;-82
2022/11/13 01:10:09;;;;;;;144.55;69.60;;;6.80;99.90;;;;;;6245782;23;19996;-82
2022/11/13 01:12:35;;;;;;;164.30;79.25;;;6.70;99.90;;;;;;6247078;23;20433;-82
2022/11/13 01:15:01;;;;;;;177.82;84.60;;;6.60;99.90;;;;;;6245591;23;19999;-82
2022/11/13 01:17:27;;;;;;;183.73;90.22;;;6.50;99.90;;;;;;6219874;23;20003;-81
2022/11/13 01:19:53;;;;;;;189.15;88.93;;;6.50;99.90;;;;;;6246822;23;20050;-82
2022/11/13 01:22:19;;;;;;;183.35;87.35;;;6.50;99.90;;;;;;6245204;23;20008;-82
2022/11/13 01:24:45;;;;;;;171.15;89.75;;;6.40;99.90;;;;;;6246840;23;19992;-82
2022/11/13 01:27:12;;;;;;;195.73;99.90;;;6.40;99.90;;;;;;6245285;22;20283;-83
2022/11/13 01:29:37;;;;;;;239.02;116.00;;;6.30;99.90;;;;;;6246604;23;20306;-83
2022/11/13 01:32:04;;;;;;;248.82;125.53;;;6.30;99.90;;;;;;6245451;23;19992;-83
2022/11/13 01:34:30;;;;;;;230.18;111.68;;;6.30;99.90;;;;;;6247295;23;20075;-82
2022/11/13 01:36:55;;;;;;;158.68;82.10;;;6.30;99.90;;;;;;6247488;23;20020;-84
2022/11/13 01:39:21;;;;;;;138.80;69.00;;;6.20;99.90;;;;;;6246408;23;20316;-83
2022/11/13 01:41:47;;;;;;;127.75;66.10;;;6.20;99.90;;;;;;6246408;23;20309;-82
2022/11/13 01:44:15;;;;;;;121.28;66.50;;;6.20;99.90;;;;;;6246547;23;20031;-82
2022/11/13 01:46:42;;;;;;;125.07;64.45;;;6.20;99.90;;;;;;6246193;23;20479;-83
2022/11/13 01:49:10;;;;;;;120.70;63.97;;;6.20;99.90;;;;;;6246580;23;20075;-81
2022/11/13 01:51:47;;;;;;;115.18;63.30;;;6.20;99.90;;;;;;6246871;23;19992;-81
2022/11/13 01:54:16;;;;;;;114.18;63.20;;;6.10;99.90;;;;;;6247129;23;20410;-82
2022/11/13 01:56:42;;;;;;;104.18;58.50;;;6.10;99.90;;;;;;6219929;23;20433;-81
2022/11/13 01:59:17;;;;;;;114.60;61.60;;;6.00;99.90;;;;;;6219078;23;20004;-81
2022/11/13 02:01:43;;;;;;;116.90;59.80;;;6.00;99.90;;;;;;6246745;23;20007;-82
2022/11/13 02:04:09;;;;;;;116.13;63.65;;;6.00;99.90;;;;;;6246242;23;20045;-83
2022/11/13 02:06:42;;;;;;;128.45;69.25;;;6.00;99.90;;;;;;6244901;23;20027;-81
2022/11/13 02:09:09;;;;;;;133.02;68.70;;;6.00;99.90;;;;;;6219900;23;20413;-82
2022/11/13 02:11:36;;;;;;;135.75;69.95;;;6.00;99.90;;;;;;6219975;23;20026;-82
2022/11/13 02:14:03;;;;;;;145.90;76.30;;;6.00;99.90;;;;;;6245716;23;20314;-81
2022/11/13 02:16:35;;;;;;;143.75;74.05;;;5.90;99.90;;;;;;6219472;23;20003;-82
2022/11/13 02:19:06;;;;;;;157.98;77.18;;;5.90;99.90;;;;;;6246506;23;19996;-81
2022/11/13 02:21:51;;;;;;;149.13;80.20;;;6.00;99.90;;;;;;6246430;23;20000;-82
2022/11/13 02:24:31;;;;;;;152.75;81.38;;;5.90;99.90;;;;;;6219657;23;20279;-82
2022/11/13 02:27:04;;;;;;;156.77;82.13;;;5.90;99.90;;;;;;6246197;23;20304;-81
2022/11/13 02:29:30;;;;;;;204.95;97.38;;;5.90;99.90;;;;;;6247201;22;20047;-81
2022/11/13 02:31:56;;;;;;;228.43;106.82;;;5.90;99.90;;;;;;6219370;23;20046;-81
2022/11/13 02:34:22;;;;;;;200.88;96.70;;;6.00;99.90;;;;;;6219113;23;20301;-82
2022/11/13 02:36:48;;;;;;;185.05;88.47;;;5.90;99.90;;;;;;6245915;23;19999;-82
2022/11/13 02:39:14;;;;;;;188.57;86.05;;;5.90;99.90;;;;;;6246519;23;19992;-81
2022/11/13 02:41:40;;;;;;;189.32;82.72;;;5.90;99.90;;;;;;6246110;23;20028;-81
2022/11/13 02:44:07;;;;;;;170.27;79.05;;;5.90;99.90;;;;;;6246458;23;20041;-82
2022/11/13 02:46:33;;;;;;;167.18;79.05;;;5.90;99.90;;;;;;6247112;23;20070;-82
2022/11/13 02:48:59;;;;;;;169.50;79.40;;;6.00;99.90;;;;;;6246389;23;19992;-81
2022/11/13 02:51:25;;;;;;;165.23;77.78;;;6.00;99.90;;;;;;6245679;23;20042;-82
2022/11/13 02:53:51;;;;;;;151.60;75.07;;;5.90;99.90;;;;;;6245594;23;19996;-82
2022/11/13 02:56:17;;;;;;;144.77;73.00;;;5.90;99.90;;;;;;6245279;23;20076;-82
2022/11/13 02:58:43;;;;;;;148.43;70.53;;;5.90;99.90;;;;;;6245644;23;19996;-81
2022/11/13 03:01:09;;;;;;;140.32;69.70;;;5.90;99.90;;;;;;6245685;23;20003;-82
2022/11/13 03:03:35;;;;;;;141.18;69.05;;;6.00;99.90;;;;;;6246059;23;19998;-82
2022/11/13 03:06:00;;;;;;;142.35;71.57;;;5.90;99.90;;;;;;6245861;23;20026;-82
2022/11/13 03:08:26;;;;;;;135.27;71.07;;;5.90;99.90;;;;;;6245271;23;20000;-82
2022/11/13 03:10:52;;;;;;;158.13;72.70;;;6.00;99.90;;;;;;6245757;23;20000;-81
2022/11/13 03:13:18;;;;;;;150.68;77.15;;;6.00;99.90;;;;;;6244429;23;20027;-82
2022/11/13 03:15:44;;;;;;;178.20;85.38;;;5.90;99.90;;;;;;6245779;23;19995;-81
2022/11/13 03:18:11;;;;;;;174.48;85.43;;;5.90;99.90;;;;;;6246427;23;20000;-82
2022/11/13 03:20:39;;;;;;;151.80;74.43;;;5.90;99.90;;;;;;6246400;23;20042;-82
2022/11/13 03:23:05;;;;;;;134.90;70.88;;;5.90;99.90;;;;;;6219036;23;19993;-82
2022/11/13 03:25:32;;;;;;;134.65;66.30;;;5.90;99.90;;;;;;6219454;23;20003;-82
2022/11/13 03:27:58;;;;;;;129.30;66.70;;;5.90;99.90;;;;;;6229000;22;20070;-82
2022/11/13 03:30:24;;;;;;;125.35;64.93;;;5.90;99.90;;;;;;6276367;22;19995;-82
2022/11/13 03:32:55;;;;;;;127.75;64.30;;;5.90;99.90;;;;;;6276714;22;20511;-82
2022/11/13 03:35:22;;;;;;;131.27;66.60;;;5.90;99.90;;;;;;6276566;22;20024;-82
2022/11/13 03:37:48;;;;;;;135.60;67.38;;;5.90;99.90;;;;;;6249725;22;20022;-82
2022/11/13 03:40:13;;;;;;;129.43;67.18;;;5.80;99.90;;;;;;6249576;22;20417;-82
2022/11/13 03:42:39;;;;;;;112.13;60.83;;;5.80;99.90;;;;;;6249818;22;20118;-82
2022/11/13 03:45:05;;;;;;;117.30;60.30;;;5.80;99.90;;;;;;6276762;22;20450;-82
2022/11/13 03:47:31;;;;;;;110.47;57.83;;;5.70;99.90;;;;;;6276719;22;19988;-81
2022/11/13 03:49:57;;;;;;;117.65;58.45;;;5.70;99.90;;;;;;6277038;22;20305;-81
2022/11/13 03:52:22;;;;;;;109.43;60.15;;;5.60;99.90;;;;;;6276552;22;19991;-82
2022/11/13 03:54:48;;;;;;;116.15;58.97;;;5.60;99.90;;;;;;6276794;22;20089;-82
2022/11/13 03:57:14;;;;;;;101.10;55.63;;;5.60;99.90;;;;;;6276415;22;19996;-81
2022/11/13 03:59:40;;;;;;;91.38;50.72;;;5.50;99.90;;;;;;6276404;22;20074;-81
2022/11/13 04:02:05;;;;;;;91.90;51.40;;;5.50;99.90;;;;;;6276894;22;19996;-81
2022/11/13 04:04:31;;;;;;;84.10;46.72;;;5.40;99.90;;;;;;6276335;22;20166;-82
2022/11/13 04:06:57;;;;;;;95.13;49.72;;;5.40;99.90;;;;;;6276925;22;20342;-82
2022/11/13 04:09:23;;;;;;;92.35;49.38;;;5.30;99.90;;;;;;6276917;22;20007;-81
2022/11/13 04:11:48;;;;;;;89.20;49.63;;;5.30;99.90;;;;;;6276694;22;20062;-81
2022/11/13 04:14:14;;;;;;;92.20;48.72;;;5.20;99.90;;;;;;6276506;22;19999;-82
2022/11/13 04:16:40;;;;;;;92.97;50.83;;;5.20;99.90;;;;;;6276380;22;20468;-82
2022/11/13 04:19:06;;;;;;;93.38;50.45;;;5.20;99.90;;;;;;6276389;22;20082;-81
2022/11/13 04:21:31;;;;;;;94.32;50.22;;;5.20;99.90;;;;;;6277348;22;19996;-82
2022/11/13 04:23:57;;;;;;;95.53;52.40;;;5.10;99.90;;;;;;6278742;22;19988;-82
2022/11/13 04:26:23;;;;;;;98.43;51.67;;;5.20;99.90;;;;;;6278114;22;19996;-82
2022/11/13 04:28:49;;;;;;;97.28;54.17;;;5.10;99.90;;;;;;6251010;22;20065;-81
2022/11/13 04:31:14;;;;;;;97.63;55.55;;;5.10;99.90;;;;;;6278843;22;20019;-82
2022/11/13 04:33:40;;;;;;;99.97;53.20;;;5.10;99.90;;;;;;6277054;22;20420;-82
2022/11/13 04:36:06;;;;;;;94.38;52.72;;;5.10;99.90;;;;;;6278779;22;20058;-82
2022/11/13 04:38:32;;;;;;;94.22;52.20;;;5.10;99.90;;;;;;6278657;22;19992;-83
2022/11/13 04:43:42;;;;;;;93.75;53.42;;;5.10;99.90;;;;;;6278420;22;20030;-80
2022/11/13 04:46:07;;;;;;;97.93;56.47;;;5.00;99.90;;;;;;6278463;22;20015;-81
2022/11/13 04:48:33;;;;;;;102.57;56.30;;;4.90;99.90;;;;;;6278453;22;19999;-79
2022/11/13 04:50:59;;;;;;;106.72;58.22;;;4.90;99.90;;;;;;6278559;22;20003;-81
2022/11/13 04:53:25;;;;;;;99.13;56.03;;;5.00;99.90;;;;;;6278129;22;19996;-80
2022/11/13 04:55:54;;;;;;;100.72;55.28;;;5.00;99.90;;;;;;6276926;22;20097;-81
2022/11/13 04:58:19;;;;;;;103.03;55.25;;;5.00;99.90;;;;;;6250781;22;20439;-80
2022/11/13 05:00:45;;;;;;;97.85;53.35;;;5.00;99.90;;;;;;6277594;22;19995;-81
2022/11/13 05:03:11;;;;;;;100.88;54.55;;;5.00;99.90;;;;;;6276613;22;20003;-81
2022/11/13 05:05:36;;;;;;;169.20;86.95;;;5.00;99.90;;;;;;6278539;22;19996;-80
2022/11/13 05:08:02;;;;;;;180.55;89.45;;;5.00;99.90;;;;;;6277898;22;20297;-79
2022/11/13 05:10:28;;;;;;;125.35;66.35;;;4.80;99.90;;;;;;6276599;22;20030;-80
2022/11/13 05:12:57;;;;;;;113.28;61.90;;;4.70;99.90;;;;;;6250842;22;19996;-80
2022/11/13 05:15:23;;;;;;;96.78;53.17;;;4.70;99.90;;;;;;6278124;22;19998;-80
2022/11/13 05:17:49;;;;;;;105.72;56.85;;;4.70;99.90;;;;;;6276613;22;20000;-80
2022/11/13 05:20:15;;;;;;;96.80;51.50;;;4.60;99.90;;;;;;6278219;22;20401;-80
2022/11/13 05:22:41;;;;;;;86.13;47.60;;;4.70;99.90;;;;;;6277897;22;20123;-81
2022/11/13 05:25:07;;;;;;;82.53;45.80;;;4.70;99.90;;;;;;6277848;22;20396;-81
2022/11/13 05:27:32;;;;;;;80.13;45.20;;;4.60;99.90;;;;;;6277781;22;20371;-80
2022/11/13 05:29:58;;;;;;;84.28;44.80;;;4.60;99.90;;;;;;6277470;22;19996;-80
2022/11/13 05:32:24;;;;;;;83.90;48.80;;;4.70;99.90;;;;;;6277624;22;20419;-80
2022/11/13 05:34:50;;;;;;;82.10;47.28;;;4.60;99.90;;;;;;6277558;22;20454;-80
2022/11/13 05:37:16;;;;;;;83.20;45.03;;;4.70;99.90;;;;;;6277364;22;20019;-80
2022/11/13 05:39:42;;;;;;;81.90;44.75;;;4.70;99.90;;;;;;6250536;22;20003;-81
2022/11/13 05:42:07;;;;;;;81.65;44.50;;;4.60;99.90;;;;;;6277517;22;20046;-80
2022/11/13 05:44:33;;;;;;;85.53;48.75;;;4.70;99.90;;;;;;6277935;22;20003;-80
2022/11/13 05:46:59;;;;;;;94.85;50.25;;;4.60;99.90;;;;;;6277221;22;20023;-83
2022/11/13 05:49:25;;;;;;;103.57;53.95;;;4.70;99.90;;;;;;6275283;22;20007;-82
2022/11/13 05:51:54;;;;;;;109.53;53.53;;;4.70;99.90;;;;;;6277309;22;20042;-82
2022/11/13 05:54:20;;;;;;;114.97;56.42;;;4.70;99.90;;;;;;6277589;22;20416;-83
2022/11/13 05:56:45;;;;;;;112.13;61.20;;;4.70;99.90;;;;;;6277263;22;20072;-83
2022/11/13 05:59:11;;;;;;;122.82;65.40;;;4.80;99.90;;;;;;6277198;22;20427;-84
2022/11/13 06:01:39;;;;;;;162.73;84.90;;;4.80;99.90;;;;;;6277215;22;20314;-83
2022/11/13 06:04:06;;;;;;;133.68;73.18;;;4.80;99.90;;;;;;6276809;22;20002;-82
2022/11/13 06:06:32;;;;;;;111.75;60.38;;;4.80;99.90;;;;;;6277716;22;19996;-83
2022/11/13 06:09:00;;;;;;;112.97;60.10;;;4.80;99.90;;;;;;6277474;22;20080;-83
2022/11/13 06:11:27;;;;;;;122.13;65.38;;;4.90;99.90;;;;;;6250072;22;19996;-82
2022/11/13 06:13:54;;;;;;;125.45;67.97;;;4.90;99.90;;;;;;6277434;22;20014;-82
2022/11/13 06:16:23;;;;;;;128.50;71.78;;;5.00;99.90;;;;;;6277315;22;20424;-83
2022/11/13 06:18:53;;;;;;;124.70;72.57;;;5.10;99.90;;;;;;6277525;22;20053;-82
2022/11/13 06:21:21;;;;;;;143.95;78.30;;;5.10;99.90;;;;;;6277352;22;19999;-83
2022/11/13 06:23:47;;;;;;;130.55;71.57;;;5.20;99.90;;;;;;6250096;22;20417;-82
2022/11/13 06:26:16;;;;;;;126.15;68.57;;;5.40;99.90;;;;;;6276910;22;19992;-83
2022/11/13 06:28:42;;;;;;;173.90;85.20;;;5.50;99.90;;;;;;6276722;22;20019;-85
2022/11/13 06:31:23;;;;;;;132.07;72.75;;;6.10;99.90;;;;;;6277189;22;19995;-81
2022/11/13 06:33:49;;;;;;;135.32;67.43;;;6.90;99.90;;;;;;6277165;22;19992;-79
2022/11/13 06:36:21;;;;;;;153.90;80.18;;;7.50;99.90;;;;;;6277157;22;20059;-80
2022/11/13 06:38:47;;;;;;;122.28;64.65;;;7.80;99.90;;;;;;6277105;22;19995;-80
2022/11/13 06:41:15;;;;;;;114.82;60.75;;;7.70;99.90;;;;;;6277329;22;20003;-79
2022/11/13 06:43:41;;;;;;;117.10;63.13;;;7.60;99.90;;;;;;6276587;22;19992;-80
2022/11/13 06:46:14;;;;;;;99.90;56.53;;;7.40;99.90;;;;;;6276380;22;20069;-79
2022/11/13 06:48:40;;;;;;;102.20;53.00;;;7.40;99.90;;;;;;6277158;22;20000;-79
2022/11/13 06:51:08;;;;;;;89.53;51.53;;;7.30;99.90;;;;;;6276718;22;20044;-81
2022/11/13 06:53:34;;;;;;;101.53;56.80;;;7.30;99.90;;;;;;6276617;22;20074;-80
2022/11/13 06:56:00;;;;;;;105.72;55.05;;;7.30;99.90;;;;;;6277409;22;20015;-80
2022/11/13 06:58:26;;;;;;;111.55;62.67;;;7.60;99.90;;;;;;6276112;22;19999;-81
2022/11/13 07:00:52;;;;;;;111.75;61.10;;;7.80;99.90;;;;;;6277113;22;20065;-80
2022/11/13 07:03:23;;;;;;;109.72;61.63;;;7.70;99.90;;;;;;6276769;22;20293;-79
2022/11/13 07:05:49;;;;;;;125.57;67.55;;;7.60;99.90;;;;;;6250041;22;20004;-79
2022/11/13 07:08:16;;;;;;;132.15;71.13;;;7.50;99.90;;;;;;6276537;22;19991;-80
2022/11/13 07:10:43;;;;;;;118.72;63.38;;;7.50;99.90;;;;;;6276992;22;20077;-79
2022/11/13 07:13:09;;;;;;;110.25;58.83;;;7.40;99.90;;;;;;6276767;22;20002;-79
2022/11/13 07:15:39;;;;;;;120.25;63.08;;;7.40;99.90;;;;;;6276706;22;19996;-79
2022/11/13 07:18:05;;;;;;;104.10;55.53;;;7.30;99.90;;;;;;6276862;22;20094;-80
2022/11/13 07:20:32;;;;;;;83.22;45.72;;;7.30;99.90;;;;;;6249281;22;20008;-80
2022/11/13 07:22:59;;;;;;;85.95;47.03;;;7.30;99.90;;;;;;6276979;22;19988;-80
2022/11/13 07:25:26;;;;;;;85.03;47.83;;;7.40;99.90;;;;;;6276802;22;19995;-81
2022/11/13 07:27:52;;;;;;;85.10;48.65;;;7.30;99.90;;;;;;6275918;22;20359;-82
2022/11/13 07:30:18;;;;;;;92.68;50.75;;;7.30;99.90;;;;;;6277007;22;20549;-82
2022/11/13 07:32:44;;;;;;;109.30;63.65;;;7.30;99.90;;;;;;6277016;22;20377;-81
2022/11/13 07:35:10;;;;;;;86.35;50.08;;;7.40;99.90;;;;;;6276795;22;19991;-82
2022/11/13 07:37:36;;;;;;;80.70;45.85;;;7.50;99.90;;;;;;6276960;22;20411;-82
2022/11/13 07:40:03;;;;;;;107.18;57.42;;;7.60;99.90;;;;;;6276154;22;20000;-82
2022/11/13 07:42:29;;;;;;;94.38;50.20;;;7.60;99.90;;;;;;6276420;22;20006;-82
2022/11/13 07:44:55;;;;;;;82.55;45.50;;;7.80;99.90;;;;;;6249934;22;20004;-81
2022/11/13 07:47:21;;;;;;;84.82;48.65;;;7.80;99.90;;;;;;6277032;22;20401;-81
2022/11/13 07:49:46;;;;;;;83.45;48.83;;;8.00;99.90;;;;;;6276766;22;20270;-82
2022/11/13 07:52:12;;;;;;;90.50;50.25;;;8.00;99.90;;;;;;6276737;22;19991;-82
2022/11/13 07:54:38;;;;;;;91.45;47.63;;;8.10;99.90;;;;;;6276276;22;19992;-82
2022/11/13 07:57:04;;;;;;;99.63;50.35;;;8.20;99.90;;;;;;6250695;22;20046;-82
2022/11/13 07:59:29;;;;;;;89.60;46.85;;;8.30;99.90;;;;;;6278340;22;19999;-82
2022/11/13 08:01:55;;;;;;;83.50;47.55;;;8.40;99.90;;;;;;6278527;22;20002;-81
2022/11/13 08:04:21;;;;;;;93.78;50.58;;;8.50;99.90;;;;;;6278308;22;20027;-82
2022/11/13 08:06:47;;;;;;;71.03;41.97;;;8.60;99.90;;;;;;6278419;22;19999;-82
2022/11/13 08:09:12;;;;;;;109.88;55.75;;;8.70;99.90;;;;;;6278442;22;19995;-81
2022/11/13 08:11:38;;;;;;;65.53;37.38;;;8.80;99.90;;;;;;6278377;22;19999;-81
2022/11/13 08:14:04;;;;;;;84.55;51.13;;;8.90;99.90;;;;;;6278145;22;19995;-82
2022/11/13 08:16:30;;;;;;;67.75;40.40;;;9.00;99.90;;;;;;6276640;22;20066;-82
2022/11/13 08:18:55;;;;;;;63.90;38.53;;;9.00;99.90;;;;;;6278423;22;19995;-81
2022/11/13 08:21:21;;;;;;;78.65;45.70;;;9.20;99.90;;;;;;6278383;22;20365;-81
2022/11/13 08:23:49;;;;;;;90.55;48.00;;;9.30;99.90;;;;;;6278389;22;19995;-82
2022/11/13 08:26:16;;;;;;;115.78;60.10;;;9.30;99.90;;;;;;6251617;22;20000;-82
2022/11/13 08:28:42;;;;;;;89.03;47.78;;;9.50;99.90;;;;;;6278342;22;20325;-82
2022/11/13 08:31:13;;;;;;;74.50;43.15;;;9.60;99.90;;;;;;6277796;22;19996;-82
2022/11/13 08:33:39;;;;;;;80.50;46.33;;;9.80;99.90;;;;;;6278087;22;20002;-82
2022/11/13 08:36:05;;;;;;;64.10;34.17;;;10.00;99.90;;;;;;6278215;22;19991;-82
2022/11/13 08:38:31;;;;;;;58.03;32.42;;;10.10;99.90;;;;;;6277840;22;20006;-82
2022/11/13 08:41:00;;;;;;;56.33;30.27;;;10.20;99.90;;;;;;6278375;22;20053;-81
2022/11/13 08:43:26;;;;;;;59.05;32.60;;;10.30;99.90;;;;;;6251603;22;20006;-81
2022/11/13 08:45:53;;;;;;;57.45;32.03;;;10.40;99.90;;;;;;6278221;22;20024;-81
2022/11/13 08:48:19;;;;;;;63.80;34.72;;;10.50;99.90;;;;;;6278566;22;20060;-82
2022/11/13 08:50:44;;;;;;;47.75;26.05;;;10.70;99.90;;;;;;6251326;22;19995;-82
2022/11/13 08:53:10;;;;;;;41.88;24.67;;;10.80;99.90;;;;;;6278081;22;20349;-82
2022/11/13 08:55:36;;;;;;;39.70;22.38;;;10.80;99.90;;;;;;6278264;22;20002;-81
2022/11/13 08:58:03;;;;;;;40.85;21.92;;;10.90;99.90;;;;;;6277388;22;20072;-81
2022/11/13 09:00:31;;;;;;;44.28;23.42;;;11.00;99.90;;;;;;6278220;22;20417;-82
2022/11/13 09:02:58;;;;;;;48.78;30.13;;;11.00;99.90;;;;;;6251285;22;20052;-79
2022/11/13 09:05:25;;;;;;;34.75;20.30;;;11.00;99.90;;;;;;6277908;22;19999;-81
2022/11/13 09:07:54;;;;;;;38.85;21.13;;;11.10;99.90;;;;;;6278276;22;20014;-82
2022/11/13 09:10:20;;;;;;;40.30;22.23;;;11.20;99.90;;;;;;6278155;22;20339;-81
2022/11/13 09:12:45;;;;;;;46.97;26.13;;;11.30;99.90;;;;;;6278360;22;20062;-82
2022/11/13 09:15:12;;;;;;;40.95;22.88;;;11.40;99.90;;;;;;6278447;22;20080;-82
2022/11/13 09:17:38;;;;;;;41.78;21.42;;;11.40;99.90;;;;;;6276961;22;20021;-81
2022/11/13 09:20:07;;;;;;;59.78;33.83;;;11.60;99.90;;;;;;6277707;22;20472;-80
2022/11/13 09:22:34;;;;;;;36.13;20.67;;;11.80;99.90;;;;;;6278056;22;19995;-81
2022/11/13 09:24:59;;;;;;;39.53;20.45;;;11.90;99.90;;;;;;6277854;22;20008;-82
2022/11/13 09:27:26;;;;;;;36.92;22.35;;;12.20;99.90;;;;;;6278024;22;20023;-82
2022/11/13 09:29:51;;;;;;;33.40;19.92;;;12.40;99.90;;;;;;6277974;22;19996;-83
2022/11/13 09:32:17;;;;;;;34.30;20.50;;;12.50;99.90;;;;;;6276553;22;20019;-83
2022/11/13 09:34:43;;;;;;;29.10;17.50;;;12.80;99.90;;;;;;6276419;22;20022;-83
2022/11/13 09:37:09;;;;;;;30.05;18.63;;;13.00;99.90;;;;;;6277372;22;20193;-81
2022/11/13 09:39:34;;;;;;;30.85;18.58;;;13.20;99.90;;;;;;6277530;22;20006;-83
2022/11/13 09:42:03;;;;;;;32.70;19.42;;;13.40;99.90;;;;;;6277753;22;20075;-80
2022/11/13 09:44:47;;;;;;;34.97;19.27;;;13.70;99.90;;;;;;6277888;22;19988;-79
2022/11/13 09:47:20;;;;;;;98.88;54.20;;;13.80;99.90;;;;;;6277900;22;19996;-82
2022/11/13 09:49:53;;;;;;;56.28;29.85;;;14.00;99.90;;;;;;6278131;22;20035;-83
2022/11/13 09:52:40;;;;;;;49.35;26.63;;;14.20;99.90;;;;;;6250780;22;20083;-82
2022/11/13 09:55:12;;;;;;;45.20;24.73;;;14.60;99.50;;;;;;6276830;22;19991;-82
2022/11/13 09:57:46;;;;;;;133.07;57.38;;;15.00;98.20;;;;;;6277213;22;20004;-82
2022/11/13 10:00:20;;;;;;;32.25;17.98;;;15.10;95.90;;;;;;6250168;22;20423;-84
2022/11/13 10:03:07;;;;;;;39.65;22.23;;;15.30;94.60;;;;;;6277481;22;20000;-81
2022/11/13 10:05:45;;;;;;;150.50;61.22;;;15.50;93.40;;;;;;6277286;22;20308;-80
2022/11/13 10:08:22;;;;;;;57.45;27.40;;;15.50;92.30;;;;;;6276936;22;19996;-82
2022/11/13 10:11:07;;;;;;;60.75;28.73;;;15.90;92.00;;;;;;6250839;22;19992;-81
2022/11/13 10:13:45;;;;;;;31.35;18.23;;;16.10;90.30;;;;;;6277838;22;20003;-80
2022/11/13 10:16:19;;;;;;;31.42;18.20;;;16.40;89.50;;;;;;6276941;22;19995;-82
2022/11/13 10:18:47;;;;;;;33.40;18.83;;;16.60;86.10;;;;;;6277077;22;19996;-82
2022/11/13 10:21:47;;;;;;;28.63;16.90;;;16.70;84.80;;;;;;6249159;22;20010;-82
2022/11/13 10:24:25;;;;;;;32.35;18.05;;;16.90;83.30;;;;;;6276512;22;19988;-80
2022/11/13 10:26:56;;;;;;;25.60;16.60;;;17.30;82.10;;;;;;6276898;22;20443;-80
2022/11/13 10:29:22;;;;;;;22.67;13.23;;;17.40;80.00;;;;;;6276723;22;20432;-81
2022/11/13 10:31:50;;;;;;;35.83;20.85;;;17.50;78.70;;;;;;6276583;22;20276;-81
2022/11/13 10:34:18;;;;;;;28.88;19.13;;;17.30;76.70;;;;;;6276576;22;20305;-80
2022/11/13 10:37:02;;;;;;;32.53;17.92;;;17.50;78.70;;;;;;6276604;22;19992;-80
2022/11/13 10:39:28;;;;;;;23.55;14.57;;;17.50;77.20;;;;;;6276594;22;20462;-81
2022/11/13 10:41:54;;;;;;;30.50;16.63;;;17.80;76.30;;;;;;6274836;22;19996;-81
2022/11/13 10:44:32;;;;;;;23.63;15.23;;;18.10;75.90;;;;;;6276380;22;20015;-82
2022/11/13 10:47:07;;;;;;;35.72;17.13;;;18.60;74.80;;;;;;6276750;22;19996;-81
2022/11/13 10:49:33;;;;;;;30.73;15.68;;;19.30;73.20;;;;;;6249737;22;19996;-81
2022/11/13 10:52:01;;;;;;;28.88;17.60;;;19.20;70.50;;;;;;6276594;22;19998;-81
2022/11/13 10:54:31;;;;;;;21.48;13.43;;;;;;;;;;6276486;22;19999;-82
2022/11/13 10:56:59;;;;;;;31.65;17.90;;;19.20;66.30;;;;;;6276622;22;20348;-82
2022/11/13 10:59:36;;;;;;;29.67;15.05;;;19.10;67.50;;;;;;6249203;22;20025;-82
2022/11/13 11:02:13;;;;;;;25.17;14.93;;;18.60;68.40;;;;;;6249242;22;20027;-81
2022/11/13 11:04:39;;;;;;;32.63;16.85;;;18.30;70.10;;;;;;6276131;22;19991;-81
2022/11/13 11:07:25;;;;;;;22.88;13.02;;;18.20;70.80;;;;;;6275854;22;20047;-81
2022/11/13 11:09:51;;;;;;;28.83;14.70;;;18.70;69.90;;;;;;6275050;22;20034;-81
2022/11/13 11:12:24;;;;;;;24.85;16.30;;;19.00;69.30;;;;;;6276243;22;20046;-82
2022/11/13 11:14:56;;;;;;;20.42;12.55;;;19.10;68.50;;;;;;6249331;22;20320;-82
2022/11/13 11:17:30;;;;;;;20.23;13.27;;;19.10;67.00;;;;;;6276233;22;20019;-81
2022/11/13 11:20:20;;;;;;;28.15;16.45;;;19.10;67.80;;;;;;6276021;22;20002;-82
2022/11/13 11:22:53;;;;;;;21.33;13.88;;;19.30;66.60;;;;;;6249567;22;20312;-81
2022/11/13 11:25:41;;;;;;;30.77;15.52;;;19.10;66.10;;;;;;6275685;22;20409;-82
2022/11/13 11:28:32;;;;;;;23.80;15.70;;;18.70;66.30;;;;;;6248982;22;20019;-82
2022/11/13 11:31:25;;;;;;;20.27;11.82;;;18.30;67.90;;;;;;6277108;22;20062;-81
2022/11/13 11:33:58;;;;;;;32.63;17.13;;;17.80;68.50;;;;;;6278446;22;19991;-82
2022/11/13 11:36:35;;;;;;;76.45;31.33;;;17.80;69.30;;;;;;6277845;22;20489;-82
2022/11/13 11:39:26;;;;;;;101.72;39.63;;;18.10;68.80;;;;;;6278136;22;20078;-81
2022/11/13 11:42:07;;;;;;;93.80;39.25;;;18.10;69.50;;;;;;6278515;22;19999;-80
2022/11/13 11:44:53;;;;;;;21.75;12.40;;;18.20;69.10;;;;;;6278283;22;20465;-80
2022/11/13 11:47:19;;;;;;;32.72;17.00;;;18.20;69.20;;;;;;6230232;22;20053;-81
2022/11/13 11:49:45;;;;;;;25.23;14.50;;;18.30;68.60;;;;;;6278530;22;20402;-82
2022/11/13 11:52:26;;;;;;;25.58;15.60;;;18.50;67.50;;;;;;6278158;22;20075;-82
2022/11/13 11:55:04;;;;;;;51.60;26.25;;;18.30;67.40;;;;;;6278364;22;20392;-82
2022/11/13 11:57:42;;;;;;;54.17;27.85;;;18.20;68.00;;;;;;6277924;22;19996;-85
2022/11/13 12:00:15;;;;;;;43.00;21.95;;;18.20;67.90;;;;;;6250656;22;20031;-81
2022/11/13 12:02:54;;;;;;;24.80;16.02;;;18.10;68.50;;;;;;6278427;22;20053;-81
2022/11/13 12:05:57;;;;;;;38.67;21.98;;;17.90;68.00;;;;;;6277679;22;20320;-82
2022/11/13 12:08:32;;;;;;;21.33;12.70;;;17.60;69.10;;;;;;6277887;22;19994;-81
2022/11/13 12:11:15;;;;;;;21.33;12.40;;;17.40;70.50;;;;;;6251037;22;20480;-81
2022/11/13 12:14:34;;;;;;;28.70;12.80;;;17.10;70.50;;;;;;6277962;22;19999;-84
2022/11/13 12:17:21;;;;;;;27.00;14.25;;;16.90;71.00;;;;;;6184257;23;20011;-84
2022/11/13 12:20:21;;;;;;;22.25;13.15;;;16.80;71.40;;;;;;6183899;23;20001;-83
2022/11/13 12:23:21;;;;;;;38.30;18.80;;;16.70;70.90;;;;;;6183585;23;20326;-80
2022/11/13 12:26:15;;;;;;;22.33;13.98;;;16.70;72.50;;;;;;6124502;23;20347;-80
2022/11/13 12:28:49;;;;;;;21.17;12.98;;;16.50;72.50;;;;;;6152895;23;20323;-81
2022/11/13 12:31:42;;;;;;;30.05;13.65;;;16.40;72.80;;;;;;6154187;23;20001;-81
2022/11/13 12:34:26;;;;;;;31.75;18.88;;;16.30;73.30;;;;;;6154102;23;20457;-81
2022/11/13 12:36:53;;;;;;;26.52;14.98;;;16.30;75.20;;;;;;6153929;23;20001;-80
2022/11/13 12:39:40;;;;;;;22.70;14.70;;;16.10;74.50;;;;;;6153596;23;20028;-80
2022/11/13 12:42:34;;;;;;;27.35;16.42;;;16.00;75.10;;;;;;6153259;23;20012;-80